Time;durP1;ratioP1;P1;durP2;ratioP2;P2;SDS_P1;SDS_P2;PMS_P1;PMS_P2;Temp;Humidity;BMP_temperature;BMP_pressure;BME280_temperature;BME280_humidity;BME280_pressure;Samples;Min_cycle;Max_cycle;Signal;HPM_P1;HPM_P2
2022/05/16 00:01:26;;;;;;;;;;;;;;;20.00;63.13;101111.22;7409140;19;1463;-62
2022/05/16 00:03:55;;;;;;;;;;;;;;;20.01;63.28;101101.34;7407165;19;1853;-51
2022/05/16 00:06:23;;;;;;;;;;;;;;;19.99;63.27;101088.03;7407990;19;1741;-63
2022/05/16 00:08:53;;;;;;;;;;;;;;;19.99;63.17;101095.25;7407542;19;1745;-52
2022/05/16 00:11:22;;;;;;;;;;;;;;;20.01;63.26;101095.97;7407544;19;1434;-63
2022/05/16 00:13:50;;;;;;;;;;;;;;;19.99;63.52;101095.25;7407958;19;1627;-61
2022/05/16 00:16:18;;;;;;;;;;;;;;;20.06;63.58;101115.22;7408341;19;1527;-52
2022/05/16 00:18:51;;;;;;;;;;;;;;;20.02;63.13;101089.63;7407056;19;1638;-51
2022/05/16 00:21:19;;;;;;;;;;;;;;;20.03;63.27;101102.03;7408939;19;1569;-52
2022/05/16 00:23:48;;;;;;;;;;;;;;;20.00;63.22;101105.00;7405730;19;1857;-63
2022/05/16 00:26:16;;;;;;;;;;;;;;;19.99;62.74;101081.81;7407299;19;1525;-50
2022/05/16 00:28:45;;;;;;;;;;;;;;;19.99;62.74;101103.31;7407668;19;1587;-52
2022/05/16 00:31:13;;;;;;;;;;;;;;;19.97;62.97;101103.44;7407304;19;1622;-53
2022/05/16 00:33:42;;;;;;;;;;;;;;;19.99;62.74;101087.19;7405895;19;1583;-52
2022/05/16 00:36:13;;;;;;;;;;;;;;;19.96;62.60;101087.47;7407744;19;1509;-55
2022/05/16 00:38:41;;;;;;;;;;;;;;;19.96;62.79;101079.44;7406424;19;1533;-62
2022/05/16 00:41:09;;;;;;;;;;;;;;;19.94;62.86;101095.66;7405600;19;1315;-52
2022/05/16 00:43:46;;;;;;;;;;;;;;;19.99;63.14;101097.94;7403296;19;1867;-50
2022/05/16 00:46:14;;;;;;;;;;;;;;;19.95;62.75;101080.41;7402482;19;1691;-52
2022/05/16 00:48:42;;;;;;;;;;;;;;;19.98;63.00;101107.00;7405061;19;1380;-63
2022/05/16 00:51:15;;;;;;;;;;;;;;;19.96;63.00;101103.59;7407149;19;1361;-61
2022/05/16 00:53:44;;;;;;;;;;;;;;;19.94;62.78;101090.28;7405760;19;1517;-55
2022/05/16 00:56:13;;;;;;;;;;;;;;;19.96;63.10;101082.94;7405824;19;1494;-63
2022/05/16 00:58:42;;;;;;;;;;;;;;;19.97;62.93;101089.16;7405881;19;1489;-52
2022/05/16 01:04:47;;;;;;;;;;;;;;;19.98;63.14;101090.88;7406311;19;1422;-52
2022/05/16 01:06:43;;;;;;;;;;;;;;;19.95;63.12;101085.75;7406169;19;1637;-62
2022/05/16 01:09:11;;;;;;;;;;;;;;;19.96;63.13;101082.13;7405931;19;1768;-52
2022/05/16 01:11:41;;;;;;;;;;;;;;;19.94;63.39;101084.06;7405205;19;1671;-63
2022/05/16 01:14:09;;;;;;;;;;;;;;;19.95;63.28;101075.03;7405553;19;1410;-62
2022/05/16 01:16:38;;;;;;;;;;;;;;;19.95;63.80;101070.50;7406157;19;1616;-63
2022/05/16 01:19:07;;;;;;;;;;;;;;;19.96;63.69;101098.22;7405044;19;1548;-51
2022/05/16 01:21:37;;;;;;;;;;;;;;;19.96;63.70;101087.47;7406428;19;1654;-62
2022/05/16 01:24:09;;;;;;;;;;;;;;;19.98;63.57;101085.50;7403645;19;1853;-52
2022/05/16 01:26:38;;;;;;;;;;;;;;;19.93;64.00;101077.00;7405710;19;1509;-52
2022/05/16 01:29:09;;;;;;;;;;;;;;;19.97;64.05;101094.53;7405573;19;1617;-62
2022/05/16 01:31:37;;;;;;;;;;;;;;;19.95;63.73;101080.41;7405968;19;1500;-51
2022/05/16 01:34:06;;;;;;;;;;;;;;;19.92;63.61;101089.56;7405913;19;1529;-53
2022/05/16 01:36:34;;;;;;;;;;;;;;;19.92;63.73;101086.88;7405653;19;1682;-52
2022/05/16 01:39:03;;;;;;;;;;;;;;;19.95;63.53;101081.25;7403223;19;1667;-52
2022/05/16 01:41:34;;;;;;;;;;;;;;;19.92;63.37;101080.69;7404537;19;1529;-52
2022/05/16 01:44:03;;;;;;;;;;;;;;;19.96;63.50;101093.69;7403844;19;1853;-51
2022/05/16 01:46:32;;;;;;;;;;;;;;;19.92;63.49;101080.69;7405124;19;1434;-52
2022/05/16 01:49:00;;;;;;;;;;;;;;;19.93;63.59;101082.38;7404242;19;1670;-63
2022/05/16 01:51:29;;;;;;;;;;;;;;;19.92;63.73;101069.94;7405631;19;1559;-63
2022/05/16 01:53:57;;;;;;;;;;;;;;;19.91;63.74;101074.44;7402774;19;1870;-51
2022/05/16 01:56:26;;;;;;;;;;;;;;;19.90;63.79;101072.75;7403605;19;1547;-52
2022/05/16 01:58:57;;;;;;;;;;;;;;;19.92;63.44;101064.56;7404653;19;1605;-52
2022/05/16 02:04:10;;;;;;;;;;;;;;;19.93;63.68;101082.38;7392986;19;2233;-35
2022/05/16 02:06:40;;;;;;;;;;;;;;;19.89;63.56;101080.94;7399492;19;1714;-35
2022/05/16 02:09:23;;;;;;;;;;;;;;;;;;;;;
2022/05/16 02:11:56;;;;;;;;;;;;;;;19.88;63.63;101082.78;7398213;19;1830;-35
2022/05/16 02:14:28;;;;;;;;;;;;;;;19.98;63.87;101096.25;7399891;19;1926;-37
2022/05/16 02:17:03;;;;;;;;;;;;;;;19.94;64.04;101078.72;7399771;19;1781;-38
2022/05/16 02:25:02;;;;;;;;;;;;;;;19.89;63.33;101087.16;7396215;19;1893;-38
2022/05/16 02:27:31;;;;;;;;;;;;;;;19.92;63.27;101096.78;7396814;19;1782;-38
2022/05/16 02:30:07;;;;;;;;;;;;;;;19.90;63.51;101085.34;7398790;19;1439;-37
2022/05/16 02:32:37;;;;;;;;;;;;;;;19.93;63.34;101090.41;7399583;19;1832;-35
2022/05/16 02:35:09;;;;;;;;;;;;;;;19.89;63.83;101089.81;7399554;19;1876;-37
2022/05/16 02:37:47;;;;;;;;;;;;;;;19.90;63.35;101096.06;7401078;19;1611;-37
2022/05/16 02:40:19;;;;;;;;;;;;;;;19.90;63.49;101093.38;7397302;19;1676;-37
2022/05/16 02:42:50;;;;;;;;;;;;;;;19.89;63.76;101089.81;7401172;19;1669;-37
2022/05/16 02:45:25;;;;;;;;;;;;;;;19.89;63.39;101091.66;7399595;19;1867;-37
2022/05/16 02:48:12;;;;;;;;;;;;;;;19.87;63.69;101102.53;7400052;19;2060;-37
2022/05/16 02:50:48;;;;;;;;;;;;;;;19.86;63.05;101093.63;7400089;19;1658;-37
2022/05/16 02:53:19;;;;;;;;;;;;;;;19.86;63.39;101108.91;7399591;19;1535;-37
2022/05/16 02:55:47;;;;;;;;;;;;;;;19.86;63.04;101115.09;7399612;19;1445;-37
2022/05/16 02:58:20;;;;;;;;;;;;;;;19.86;62.99;101109.75;7400135;19;1493;-37
2022/05/16 03:01:01;;;;;;;;;;;;;;;19.85;62.62;101120.59;7399858;19;1678;-37
2022/05/16 03:03:33;;;;;;;;;;;;;;;19.84;62.79;101122.44;7397233;19;1505;-37
2022/05/16 03:06:19;;;;;;;;;;;;;;;19.85;62.82;101134.03;7397855;19;1865;-37
2022/05/16 03:08:52;;;;;;;;;;;;;;;19.84;62.73;101127.81;7402616;19;1585;-37
2022/05/16 03:11:33;;;;;;;;;;;;;;;19.86;62.58;101133.06;7405572;19;1828;-37
2022/05/16 03:14:05;;;;;;;;;;;;;;;19.90;62.83;101131.81;7406743;19;1436;-37
2022/05/16 03:16:42;;;;;;;;;;;;;;;19.86;62.84;101135.75;7405861;19;1953;-37
2022/05/16 03:19:14;;;;;;;;;;;;;;;19.81;62.81;101128.06;7405699;19;1638;-37
2022/05/16 03:21:48;;;;;;;;;;;;;;;19.80;62.38;101129.06;7406072;19;1189;-37
2022/05/16 03:24:18;;;;;;;;;;;;;;;19.80;62.13;101145.16;7405014;19;1869;-37
2022/05/16 03:26:54;;;;;;;;;;;;;;;19.74;62.30;101134.97;7405697;19;1288;-37
2022/05/16 03:29:42;;;;;;;;;;;;;;;;;;;;;
2022/05/16 03:32:18;;;;;;;;;;;;;;;19.76;61.72;101150.94;7403005;19;1535;-37
2022/05/16 03:34:50;;;;;;;;;;;;;;;19.73;62.18;101149.34;7405864;19;1593;-37
2022/05/16 03:37:20;;;;;;;;;;;;;;;19.71;61.87;101162.03;7406163;19;1564;-37
2022/05/16 03:42:30;;;;;;;;;;;;;;;19.72;61.82;101174.47;7406766;19;1904;-37
2022/05/16 03:45:04;;;;;;;;;;;;;;;19.70;61.82;101156.78;7404759;19;1830;-37
2022/05/16 03:47:37;;;;;;;;;;;;;;;19.71;61.45;101164.72;7405578;19;1446;-37
2022/05/16 03:50:08;;;;;;;;;;;;;;;19.73;61.88;101157.38;7405243;19;1492;-37
2022/05/16 03:52:38;;;;;;;;;;;;;;;19.68;61.78;101163.13;7404870;19;1365;-37
2022/05/16 03:55:07;;;;;;;;;;;;;;;19.68;62.08;101171.16;7404886;19;2043;-37
2022/05/16 03:57:42;;;;;;;;;;;;;;;19.70;61.60;101167.53;7404893;19;1817;-37
2022/05/16 04:00:26;;;;;;;;;;;;;;;19.70;61.86;101170.22;7404885;19;1915;-37
2022/05/16 04:03:09;;;;;;;;;;;;;;;19.74;61.96;101159.09;7402652;19;1848;-37
2022/05/16 04:05:56;;;;;;;;;;;;;;;19.79;61.41;101178.34;7404232;19;1853;-37
2022/05/16 04:08:33;;;;;;;;;;;;;;;19.82;61.82;101183.44;7402282;19;1723;-37
2022/05/16 04:11:04;;;;;;;;;;;;;;;19.82;61.76;101178.09;7404342;19;1565;-37
2022/05/16 04:13:36;;;;;;;;;;;;;;;19.84;62.02;101161.84;7404088;19;1641;-37
2022/05/16 04:16:06;;;;;;;;;;;;;;;19.85;61.78;101198.44;7400739;19;1643;-37
2022/05/16 04:18:36;;;;;;;;;;;;;;;19.85;61.70;101183.16;7404509;19;1591;-37
2022/05/16 04:21:10;;;;;;;;;;;;;;;19.88;62.06;101191.97;7405590;19;1836;-37
2022/05/16 04:23:43;;;;;;;;;;;;;;;19.88;61.97;101187.44;7404115;19;1903;-35
2022/05/16 04:26:15;;;;;;;;;;;;;;;19.92;62.08;101193.41;7403012;19;2005;-35
2022/05/16 04:28:52;;;;;;;;;;;;;;;19.89;62.40;101199.88;7404197;19;1524;-35
2022/05/16 04:31:22;;;;;;;;;;;;;;;19.90;62.10;101206.97;7404867;19;1918;-35
2022/05/16 04:33:51;;;;;;;;;;;;;;;19.86;62.13;101217.09;7404578;19;1880;-35
2022/05/16 04:36:24;;;;;;;;;;;;;;;19.85;62.27;101201.97;7405565;19;1743;-35
2022/05/16 04:38:58;;;;;;;;;;;;;;;19.85;62.71;101198.44;7402123;19;1780;-35
2022/05/16 04:44:21;;;;;;;;;;;;;;;19.86;62.86;101209.03;7402593;19;1626;-36
2022/05/16 04:47:07;;;;;;;;;;;;;;;19.93;62.59;101200.47;7401375;19;1846;-35
2022/05/16 04:49:43;;;;;;;;;;;;;;;19.96;62.31;101194.84;7403025;19;1586;-35
2022/05/16 04:55:12;;;;;;;;;;;;;;;19.98;62.64;101176.78;7401399;19;2503;-37
2022/05/16 04:57:59;;;;;;;;;;;;;;;20.01;62.59;101201.50;7403591;19;1567;-37
2022/05/16 05:00:31;;;;;;;;;;;;;;;20.00;62.70;101205.19;7402419;19;2051;-37
2022/05/16 05:03:17;;;;;;;;;;;;;;;19.99;63.25;101216.03;7401286;19;1570;-37
2022/05/16 05:05:46;;;;;;;;;;;;;;;19.95;63.44;101207.41;7401964;19;1853;-37
2022/05/16 05:08:26;;;;;;;;;;;;;;;19.94;63.47;101227.19;7401232;19;1603;-37
2022/05/16 05:16:34;;;;;;;;;;;;;;;19.96;63.81;101229.75;7403398;19;1624;-37
2022/05/16 05:19:03;;;;;;;;;;;;;;;19.93;64.21;101206.69;7402016;19;1435;-37
2022/05/16 05:21:35;;;;;;;;;;;;;;;19.94;64.05;101212.91;7401979;19;1873;-37
2022/05/16 05:24:03;;;;;;;;;;;;;;;19.93;64.37;101209.38;7400833;19;1950;-37
2022/05/16 05:26:39;;;;;;;;;;;;;;;19.95;64.48;101233.41;7399860;19;1852;-37
2022/05/16 05:29:25;;;;;;;;;;;;;;;19.94;64.54;101219.13;7400750;19;1611;-37
2022/05/16 05:31:54;;;;;;;;;;;;;;;19.96;64.58;101216.31;7398553;19;2055;-37
2022/05/16 05:34:34;;;;;;;;;;;;;;;19.94;64.75;101210.25;7400774;19;1563;-37
2022/05/16 05:39:48;;;;;;;;;;;;;;;20.05;64.46;101212.84;7403352;19;2507;-37
2022/05/16 05:42:26;;;;;;;;;;;;;;;20.18;64.30;101215.34;7402758;19;1461;-37
2022/05/16 05:45:02;;;;;;;;;;;;;;;20.34;64.04;101217.53;7400435;19;1502;-37
2022/05/16 05:47:49;;;;;;;;;;;;;;;20.46;64.28;101208.41;7398858;19;1810;-38
2022/05/16 05:50:19;;;;;;;;;;;;;;;20.60;63.99;101216.13;7399725;19;1686;-37
2022/05/16 05:52:57;;;;;;;;;;;;;;;20.58;64.85;101223.44;7400968;19;1481;-37
2022/05/16 05:55:26;;;;;;;;;;;;;;;20.56;65.19;101214.66;7401547;19;1707;-37
2022/05/16 05:57:57;;;;;;;;;;;;;;;20.46;65.02;101216.47;7397665;19;1780;-37
2022/05/16 06:00:26;;;;;;;;;;;;;;;20.49;65.78;101229.63;7395829;19;1607;-37
2022/05/16 06:02:54;;;;;;;;;;;;;;;20.52;65.73;101217.78;7394651;19;1576;-39
2022/05/16 06:05:23;;;;;;;;;;;;;;;20.58;65.73;101210.00;7397628;19;1862;-37
2022/05/16 06:07:52;;;;;;;;;;;;;;;20.56;65.35;101219.19;7398686;19;1720;-37
2022/05/16 06:10:20;;;;;;;;;;;;;;;20.46;65.81;101220.00;7399887;19;1854;-37
2022/05/16 06:12:48;;;;;;;;;;;;;;;20.46;66.41;101225.38;7398508;19;1855;-37
2022/05/16 06:15:19;;;;;;;;;;;;;;;20.40;66.67;101225.06;7397880;19;1760;-38
2022/05/16 06:17:50;;;;;;;;;;;;;;;20.34;66.48;101221.06;7398545;19;1953;-35
2022/05/16 06:20:19;;;;;;;;;;;;;;;20.33;67.01;101229.25;7397853;19;1714;-35
2022/05/16 06:22:47;;;;;;;;;;;;;;;20.40;66.79;101222.38;7397704;19;1621;-36
2022/05/16 06:28:10;;;;;;;;;;;;;;;20.33;67.20;101232.78;7400591;19;1587;-35
2022/05/16 06:30:52;;;;;;;;;;;;;;;20.35;67.22;101232.66;7400860;19;1829;-35
2022/05/16 06:33:22;;;;;;;;;;;;;;;20.37;66.79;101225.31;7400186;19;1616;-35
2022/05/16 06:35:52;;;;;;;;;;;;;;;20.41;66.85;101221.38;7396071;19;1340;-35
2022/05/16 06:38:26;;;;;;;;;;;;;;;20.49;66.27;101226.94;7400213;19;1875;-35
2022/05/16 06:40:56;;;;;;;;;;;;;;;20.52;66.26;101217.78;7400903;19;1818;-35
2022/05/16 06:43:28;;;;;;;;;;;;;;;20.58;66.56;101207.31;7402872;19;1922;-35
2022/05/16 06:46:06;;;;;;;;;;;;;;;20.64;65.97;101211.34;7407741;19;1853;-35
2022/05/16 06:48:35;;;;;;;;;;;;;;;20.68;65.80;101209.25;7405587;19;1622;-35
2022/05/16 06:51:03;;;;;;;;;;;;;;;20.76;66.28;101209.41;7403998;19;1818;-35
2022/05/16 06:53:32;;;;;;;;;;;;;;;20.76;65.74;101204.03;7403199;19;1934;-35
2022/05/16 06:56:04;;;;;;;;;;;;;;;20.77;65.51;101216.47;7408083;19;1705;-35
2022/05/16 06:58:33;;;;;;;;;;;;;;;20.78;65.81;101210.13;7406053;19;1911;-35
2022/05/16 07:01:04;;;;;;;;;;;;;;;20.78;65.79;101207.44;7403559;19;1531;-35
2022/05/16 07:03:32;;;;;;;;;;;;;;;20.79;65.79;101209.13;7401035;19;1509;-36
2022/05/16 07:06:06;;;;;;;;;;;;;;;20.83;65.52;101189.91;7407478;19;1853;-35
2022/05/16 07:08:45;;;;;;;;;;;;;;;20.84;65.83;101212.25;7409466;19;2048;-36
2022/05/16 07:11:23;;;;;;;;;;;;;;;20.86;65.60;101205.75;7405619;19;1696;-36
2022/05/16 07:13:53;;;;;;;;;;;;;;;20.92;65.45;101214.25;7404331;19;1436;-35
2022/05/16 07:16:28;;;;;;;;;;;;;;;20.93;65.53;101202.50;7403288;19;1635;-35
2022/05/16 07:19:02;;;;;;;;;;;;;;;20.96;65.46;101218.38;7405972;19;1698;-36
2022/05/16 07:21:34;;;;;;;;;;;;;;;20.92;65.74;101198.97;7406211;19;1640;-35
2022/05/16 07:24:03;;;;;;;;;;;;;;;20.95;65.70;101211.28;7404477;19;1428;-35
2022/05/16 07:29:21;;;;;;;;;;;;;;;20.95;65.94;101211.28;7407086;19;1545;-35
2022/05/16 07:31:56;;;;;;;;;;;;;;;20.96;65.86;101194.19;7405704;19;1938;-35
2022/05/16 07:34:36;;;;;;;;;;;;;;;20.94;65.90;101196.16;7404042;19;2055;-35
2022/05/16 07:37:05;;;;;;;;;;;;;;;20.99;65.74;101210.03;7403116;19;1468;-35
2022/05/16 07:39:41;;;;;;;;;;;;;;;20.98;65.81;101211.88;7405397;19;1423;-35
2022/05/16 07:42:11;;;;;;;;;;;;;;;21.06;65.77;101212.03;7404621;19;1689;-35
2022/05/16 07:44:40;;;;;;;;;;;;;;;21.04;65.78;101205.94;7404941;19;1539;-35
2022/05/16 07:47:11;;;;;;;;;;;;;;;21.03;65.70;101189.97;7403157;19;1853;-35
2022/05/16 07:49:39;;;;;;;;;;;;;;;21.06;65.79;101201.25;7404793;19;1583;-35
2022/05/16 07:52:08;;;;;;;;;;;;;;;21.04;65.83;101195.19;7405991;19;1264;-35
2022/05/16 07:54:37;;;;;;;;;;;;;;;21.03;66.15;101209.63;7403355;19;1513;-35
2022/05/16 07:57:06;;;;;;;;;;;;;;;21.05;65.77;101198.75;7404419;19;1557;-35
2022/05/16 07:59:34;;;;;;;;;;;;;;;21.04;65.72;101195.19;7404639;19;1724;-38
2022/05/16 08:02:03;;;;;;;;;;;;;;;21.07;65.93;101218.28;7402094;19;1561;-35
2022/05/16 08:04:34;;;;;;;;;;;;;;;21.02;65.73;101215.97;7403124;19;1528;-35
2022/05/16 08:07:04;;;;;;;;;;;;;;;21.03;65.93;101215.00;7403911;19;1879;-36
2022/05/16 08:12:13;;;;;;;;;;;;;;;21.05;66.32;101204.97;7405231;19;1424;-35
2022/05/16 08:14:43;;;;;;;;;;;;;;;21.08;65.75;101213.75;7403923;19;1933;-35
2022/05/16 08:17:12;;;;;;;;;;;;;;;21.06;65.74;101201.25;7403735;19;1789;-35
2022/05/16 08:19:42;;;;;;;;;;;;;;;21.08;66.04;101209.19;7404225;19;1644;-35
2022/05/16 08:22:11;;;;;;;;;;;;;;;21.08;65.84;101202.97;7407723;19;1032;-36
2022/05/16 08:24:40;;;;;;;;;;;;;;;21.06;65.81;101217.41;7401932;19;1963;-36
2022/05/16 08:27:08;;;;;;;;;;;;;;;21.07;65.84;101210.22;7403070;19;1846;-36
2022/05/16 08:29:36;;;;;;;;;;;;;;;21.12;66.03;101209.78;7403120;19;1758;-36
2022/05/16 08:32:05;;;;;;;;;;;;;;;21.10;65.92;101214.44;7403461;19;1806;-36
2022/05/16 08:34:34;;;;;;;;;;;;;;;21.09;66.06;101210.91;7402599;19;1755;-36
2022/05/16 08:40:04;;;;;;;;;;;;;;;21.16;65.85;101203.97;7398358;19;1486;-36
2022/05/16 08:42:47;;;;;;;;;;;;;;;21.11;66.29;101208.06;7401570;19;1918;-36
2022/05/16 08:45:18;;;;;;;;;;;;;;;21.04;66.54;101200.56;7402505;19;1971;-36
2022/05/16 08:47:50;;;;;;;;;;;;;;;21.06;66.17;101212.03;7398354;19;2090;-36
2022/05/16 08:50:21;;;;;;;;;;;;;;;21.13;66.07;101208.78;7402591;19;1775;-36
2022/05/16 08:52:54;;;;;;;;;;;;;;;21.09;66.00;101220.81;7401646;19;1516;-36
2022/05/16 08:55:28;;;;;;;;;;;;;;;21.12;65.90;101207.94;7404589;19;1805;-36
2022/05/16 08:57:58;;;;;;;;;;;;;;;21.13;65.97;101198.03;7403559;19;1842;-36
2022/05/16 09:00:30;;;;;;;;;;;;;;;21.12;66.00;101199.03;7403875;19;1748;-36
2022/05/16 09:02:59;;;;;;;;;;;;;;;21.10;66.22;101195.63;7400382;19;1792;-36
2022/05/16 09:05:34;;;;;;;;;;;;;;;21.09;66.03;101189.41;7399716;19;1954;-36
2022/05/16 09:08:07;;;;;;;;;;;;;;;21.10;65.92;101198.31;7398875;19;1852;-36
2022/05/16 09:10:44;;;;;;;;;;;;;;;21.11;66.00;101192.81;7402574;19;1811;-36
2022/05/16 09:13:19;;;;;;;;;;;;;;;21.10;66.19;101196.47;7401825;19;1328;-36
2022/05/16 09:15:52;;;;;;;;;;;;;;;21.09;65.85;101189.41;7400557;19;1840;-36
2022/05/16 09:18:28;;;;;;;;;;;;;;;21.08;66.13;101187.69;7402283;19;1817;-36
2022/05/16 09:21:03;;;;;;;;;;;;;;;21.12;66.12;101188.28;7403042;19;1912;-36
2022/05/16 09:23:41;;;;;;;;;;;;;;;21.06;66.39;101182.44;7400043;19;1584;-36
2022/05/16 09:26:12;;;;;;;;;;;;;;;21.08;66.04;101181.47;7401694;19;1858;-36
2022/05/16 09:28:46;;;;;;;;;;;;;;;21.08;66.13;101170.72;7402116;19;1565;-36
2022/05/16 09:31:19;;;;;;;;;;;;;;;21.08;66.25;101184.16;7401792;19;1681;-36
2022/05/16 09:33:52;;;;;;;;;;;;;;;21.05;65.98;101171.84;7401093;19;1508;-36
2022/05/16 09:36:24;;;;;;;;;;;;;;;21.05;65.81;101174.53;7403512;19;1753;-37
2022/05/16 09:39:01;;;;;;;;;;;;;;;21.05;65.85;101177.22;7401230;19;1710;-36
2022/05/16 09:41:43;;;;;;;;;;;;;;;21.06;65.96;101174.38;7400544;19;1924;-36
2022/05/16 09:44:13;;;;;;;;;;;;;;;21.10;65.70;101171.41;7402335;19;1961;-36
2022/05/16 09:46:46;;;;;;;;;;;;;;;21.05;65.80;101167.31;7401490;19;1862;-36
2022/05/16 09:49:21;;;;;;;;;;;;;;;21.02;65.91;101151.44;7400448;19;1399;-36
2022/05/16 09:51:51;;;;;;;;;;;;;;;21.03;65.63;101147.78;7403378;19;1325;-36
2022/05/16 09:54:35;;;;;;;;;;;;;;;21.09;65.50;101145.50;7402042;19;1949;-36
2022/05/16 09:57:12;;;;;;;;;;;;;;;21.09;65.75;101132.94;7401125;19;1825;-36
2022/05/16 09:59:58;;;;;;;;;;;;;;;21.23;65.46;101139.75;7401912;19;1482;-36
2022/05/16 10:02:29;;;;;;;;;;;;;;;21.25;64.81;101143.13;7401175;19;1693;-36
2022/05/16 10:05:01;;;;;;;;;;;;;;;21.41;64.93;101156.84;7400592;19;1652;-36
2022/05/16 10:07:36;;;;;;;;;;;;;;;21.40;64.88;101144.38;7400121;19;1870;-36
2022/05/16 10:10:23;;;;;;;;;;;;;;;21.33;65.16;101134.31;7400395;19;1611;-35
2022/05/16 10:12:57;;;;;;;;;;;;;;;21.32;65.15;101146.09;7402447;19;1478;-37
2022/05/16 10:15:27;;;;;;;;;;;;;;;21.23;65.29;101139.75;7402146;19;1527;-36
2022/05/16 10:17:57;;;;;;;;;;;;;;;21.12;66.07;101129.09;7403771;19;1690;-37
2022/05/16 10:20:27;;;;;;;;;;;;;;;21.13;66.52;101125.41;7407278;19;1824;-36
2022/05/16 10:23:02;;;;;;;;;;;;;;;21.12;65.96;101129.94;7408552;19;1464;-37
2022/05/16 10:25:34;;;;;;;;;;;;;;;21.12;67.69;101126.41;7407166;19;2070;-37
2022/05/16 10:28:08;;;;;;;;;;;;;;;21.12;68.29;101118.34;7405620;19;1847;-36
2022/05/16 10:33:24;;;;;;;;;;;;;;;21.09;67.72;101107.88;7407670;19;1550;-36
2022/05/16 10:33:28;;;;;;;;;;;;;;;21.15;67.73;101107.28;7408796;19;1263;-37
2022/05/16 10:35:59;;;;;;;;;;;;;;;21.14;67.79;101105.63;7406808;19;1472;-36
2022/05/16 10:38:35;;;;;;;;;;;;;;;21.22;67.79;101113.81;7405379;19;1522;-35
2022/05/16 10:41:05;;;;;;;;;;;;;;;21.13;67.80;101094.00;7407582;19;1889;-39
2022/05/16 10:43:54;;;;;;;;;;;;;;;21.15;67.33;101094.72;7406175;19;1457;-39
2022/05/16 10:46:26;;;;;;;;;;;;;;;21.11;67.28;101087.06;7403070;19;1590;-40
2022/05/16 10:48:55;;;;;;;;;;;;;;;21.12;67.58;101086.06;7404232;19;1852;-38
2022/05/16 10:51:31;;;;;;;;;;;;;;;21.15;67.20;101092.03;7406669;19;1714;-38
2022/05/16 10:54:05;;;;;;;;;;;;;;;21.14;67.42;101073.34;7405012;19;1454;-39
2022/05/16 10:56:48;;;;;;;;;;;;;;;21.14;67.36;101071.50;7403689;19;1473;-40
2022/05/16 10:59:25;;;;;;;;;;;;;;;21.14;67.42;101067.97;7403312;19;1709;-39
2022/05/16 11:01:56;;;;;;;;;;;;;;;21.14;67.96;101067.97;7404454;19;1706;-39
2022/05/16 11:04:38;;;;;;;;;;;;;;;21.12;67.88;101067.25;7405662;19;1607;-39
2022/05/16 11:07:11;;;;;;;;;;;;;;;21.19;68.33;101061.16;7407121;19;1868;-36
2022/05/16 11:09:45;;;;;;;;;;;;;;;21.19;68.41;101058.47;7411713;19;1501;-35
2022/05/16 11:12:22;;;;;;;;;;;;;;;21.36;67.88;101056.88;7408664;19;2056;-35
2022/05/16 11:15:14;;;;;;;;;;;;;;;21.38;67.78;101051.38;7404889;19;1603;-35
2022/05/16 11:17:55;;;;;;;;;;;;;;;21.26;67.75;101040.75;7405764;19;1379;-35
2022/05/16 11:20:47;;;;;;;;;;;;;;;21.22;67.84;101035.81;7405986;19;1443;-35
2022/05/16 11:23:24;;;;;;;;;;;;;;;21.23;67.85;101038.38;7404402;19;1505;-35
2022/05/16 11:25:59;;;;;;;;;;;;;;;21.25;67.54;101049.84;7406134;19;1567;-36
2022/05/16 11:28:40;;;;;;;;;;;;;;;21.20;67.67;101044.03;7405972;19;1852;-35
2022/05/16 11:31:10;;;;;;;;;;;;;;;21.29;67.54;101042.34;7408288;19;1448;-35
2022/05/16 11:33:56;;;;;;;;;;;;;;;21.19;67.49;101049.56;7406813;19;1568;-37
2022/05/16 11:36:28;;;;;;;;;;;;;;;21.14;68.21;101041.06;7407105;19;2094;-37
2022/05/16 11:39:03;;;;;;;;;;;;;;;21.16;68.07;101039.94;7403665;19;1772;-36
2022/05/16 11:41:38;;;;;;;;;;;;;;;21.15;68.09;101043.63;7405392;19;1839;-36
2022/05/16 11:44:18;;;;;;;;;;;;;;;21.09;68.46;101037.94;7405217;19;1578;-36
2022/05/16 11:46:50;;;;;;;;;;;;;;;21.04;68.35;101036.53;7405376;19;1876;-36
2022/05/16 11:49:26;;;;;;;;;;;;;;;21.02;68.07;101037.69;7403256;19;1848;-36
2022/05/16 11:52:12;;;;;;;;;;;;;;;21.03;68.01;101024.09;7405955;19;1430;-35
2022/05/16 11:54:44;;;;;;;;;;;;;;;21.08;68.05;101020.97;7405758;19;1898;-36
2022/05/16 12:02:52;;;;;;;;;;;;;;;21.09;68.41;101005.69;7402448;19;2542;-36
2022/05/16 12:05:43;;;;;;;;;;;;;;;21.05;68.18;101005.97;7403144;19;1597;-36
2022/05/16 12:08:27;;;;;;;;;;;;;;;21.13;67.82;101013.34;7402474;19;1914;-36
2022/05/16 12:10:59;;;;;;;;;;;;;;;21.13;67.99;100969.44;7402966;19;1596;-36
2022/05/16 12:13:29;;;;;;;;;;;;;;;21.16;68.18;100990.69;7402176;19;1506;-36
2022/05/16 12:16:13;;;;;;;;;;;;;;;21.16;67.99;100990.69;7405075;19;1748;-36
2022/05/16 12:18:43;;;;;;;;;;;;;;;21.17;68.33;100981.59;7403813;19;1797;-36
2022/05/16 12:21:14;;;;;;;;;;;;;;;21.15;68.43;100995.22;7405976;19;1049;-36
2022/05/16 12:23:59;;;;;;;;;;;;;;;21.09;69.10;100989.53;7403322;19;1982;-36
2022/05/16 12:26:48;;;;;;;;;;;;;;;21.05;69.28;100987.16;7403425;19;1821;-36
2022/05/16 12:29:18;;;;;;;;;;;;;;;21.05;68.57;100981.78;7398558;19;1914;-36
2022/05/16 12:31:53;;;;;;;;;;;;;;;21.02;68.98;100987.44;7402239;19;1545;-36
2022/05/16 12:34:46;;;;;;;;;;;;;;;21.08;68.65;100987.88;7401799;19;1673;-36
2022/05/16 12:37:19;;;;;;;;;;;;;;;21.12;68.57;100978.50;7401971;19;1745;-36
2022/05/16 12:43:02;;;;;;;;;;;;;;;21.10;68.73;100970.59;7401763;19;2324;-36
2022/05/16 12:45:47;;;;;;;;;;;;;;;21.10;69.51;100970.59;7403687;19;1431;-36
2022/05/16 12:48:30;;;;;;;;;;;;;;;21.13;68.89;100964.06;7401523;19;1848;-36
2022/05/16 12:51:22;;;;;;;;;;;;;;;21.10;69.09;100949.06;7401977;19;1424;-35
2022/05/16 12:54:07;;;;;;;;;;;;;;;21.06;69.00;100953.88;7400211;19;2002;-35
2022/05/16 12:56:43;;;;;;;;;;;;;;;21.00;69.20;100957.16;7401705;19;1573;-36
2022/05/16 12:59:17;;;;;;;;;;;;;;;21.01;68.95;100948.13;7401088;19;1549;-36
2022/05/16 13:01:47;;;;;;;;;;;;;;;21.09;68.57;100949.22;7400576;19;1625;-36
2022/05/16 13:04:22;;;;;;;;;;;;;;;21.21;68.66;100937.31;7401859;19;1364;-35
2022/05/16 13:06:59;;;;;;;;;;;;;;;21.19;68.60;100939.31;7402080;19;1941;-35
2022/05/16 13:09:37;;;;;;;;;;;;;;;21.07;68.87;100933.25;7399311;19;1862;-36
2022/05/16 13:12:18;;;;;;;;;;;;;;;21.11;68.67;100934.66;7400556;19;1489;-36
2022/05/16 14:05:40;;;;;;;;;;;;;;;21.51;68.47;100924.66;7277896;19;3042454;-40
2022/05/16 14:08:20;;;;;;;;;;;;;;;21.50;68.76;100925.63;7435040;19;1960;-43
2022/05/16 14:10:52;;;;;;;;;;;;;;;21.49;68.88;100926.59;7436472;19;1483;-43
2022/05/16 14:13:24;;;;;;;;;;;;;;;21.53;68.96;100922.66;7435894;19;1394;-44
2022/05/16 14:15:54;;;;;;;;;;;;;;;21.44;68.94;100910.91;7437269;19;1830;-44
2022/05/16 14:18:32;;;;;;;;;;;;;;;21.42;68.81;100921.78;7437735;19;1561;-44
2022/05/16 14:21:07;;;;;;;;;;;;;;;21.47;68.44;100915.16;7440463;19;1220;-44
2022/05/16 14:23:43;;;;;;;;;;;;;;;21.47;68.54;100918.72;7435539;19;1863;-44
2022/05/16 14:26:19;;;;;;;;;;;;;;;21.50;68.99;100912.16;7434294;19;1474;-44
2022/05/16 14:28:49;;;;;;;;;;;;;;;21.52;69.62;100929.00;7437115;19;1250;-43
2022/05/16 14:31:19;;;;;;;;;;;;;;;21.53;69.41;100925.34;7436448;19;1313;-44
2022/05/16 14:33:53;;;;;;;;;;;;;;;21.54;69.91;100929.72;7436650;19;2039;-44
2022/05/16 14:36:28;;;;;;;;;;;;;;;21.55;69.52;100920.66;7435374;19;1667;-44
2022/05/16 14:39:16;;;;;;;;;;;;;;;21.61;70.29;100928.13;7435500;19;1595;-43
2022/05/16 14:42:05;;;;;;;;;;;;;;;21.63;70.01;100915.38;7435238;19;1814;-43
2022/05/16 14:44:38;;;;;;;;;;;;;;;21.57;69.93;100940.19;7435234;19;1873;-43
2022/05/16 14:47:25;;;;;;;;;;;;;;;21.48;70.72;100927.63;7435735;19;1704;-44
2022/05/16 14:49:55;;;;;;;;;;;;;;;21.54;71.75;100913.56;7435785;19;1963;-43
2022/05/16 14:52:31;;;;;;;;;;;;;;;21.59;70.69;100933.66;7437359;19;1325;-43
2022/05/16 14:55:02;;;;;;;;;;;;;;;21.50;70.76;100917.56;7435315;19;1949;-43
2022/05/16 14:57:32;;;;;;;;;;;;;;;21.53;71.20;100917.28;7435926;19;1371;-43
2022/05/16 15:00:01;;;;;;;;;;;;;;;21.43;71.76;100926.22;7435219;19;1846;-40